Time;durP1;ratioP1;P1;durP2;ratioP2;P2;SDS_P1;SDS_P2;PMS_P1;PMS_P2;Temp;Humidity;BMP_temperature;BMP_pressure;BME280_temperature;BME280_humidity;BME280_pressure;Samples;Min_cycle;Max_cycle;Signal;HPM_P1;HPM_P2
2022/12/20 00:00:57;;;;;;;21.80;10.95;;;;;;;7.81;100.00;101114.16;4932465;29;20098;-72
2022/12/20 00:03:23;;;;;;;19.73;11.05;;;;;;;7.80;100.00;101125.94;4916226;29;20046;-72
2022/12/20 00:05:48;;;;;;;21.00;12.60;;;;;;;7.78;100.00;101117.13;4915557;29;20055;-72
2022/12/20 00:08:14;;;;;;;19.52;10.13;;;;;;;7.87;100.00;101112.75;4915862;29;20023;-73
2022/12/20 00:10:42;;;;;;;20.05;10.15;;;;;;;7.96;100.00;101103.03;4931316;29;20030;-73
2022/12/20 00:13:08;;;;;;;26.13;11.27;;;;;;;7.73;100.00;101100.50;4932668;29;20035;-73
2022/12/20 00:15:34;;;;;;;23.23;10.98;;;;;;;7.82;100.00;101099.72;4934388;29;20030;-73
2022/12/20 00:17:59;;;;;;;18.08;10.93;;;;;;;7.86;100.00;101090.34;4937207;29;20023;-73
2022/12/20 00:20:26;;;;;;;18.60;10.23;;;;;;;7.78;100.00;101087.47;4955327;29;20034;-72
2022/12/20 00:22:52;;;;;;;24.25;11.27;;;;;;;7.74;100.00;101096.81;4954567;29;20027;-72
2022/12/20 00:25:19;;;;;;;20.77;11.43;;;;;;;7.72;100.00;101081.78;4937986;29;20026;-71
2022/12/20 00:27:45;;;;;;;19.63;11.25;;;;;;;7.57;100.00;101089.38;4943358;28;20031;-72
2022/12/20 00:30:11;;;;;;;19.05;10.57;;;;;;;7.58;100.00;101091.06;4918963;29;20027;-72
2022/12/20 00:32:37;;;;;;;26.30;11.30;;;;;;;7.58;100.00;101085.69;4935233;29;20078;-73
2022/12/20 00:35:02;;;;;;;24.08;11.68;;;;;;;7.67;100.00;101090.25;4918611;29;20031;-73
2022/12/20 00:37:28;;;;;;;20.95;10.73;;;;;;;7.68;100.00;101094.66;4918694;29;20063;-73
2022/12/20 00:39:53;;;;;;;23.35;10.45;;;;;;;7.71;100.00;101091.69;4918976;29;20036;-72
2022/12/20 00:42:18;;;;;;;19.95;9.90;;;;;;;7.86;100.00;101093.03;4918906;29;20066;-72
2022/12/20 00:44:44;;;;;;;23.60;9.57;;;;;;;7.61;100.00;101090.78;4918865;29;20062;-73
2022/12/20 00:47:09;;;;;;;24.08;10.27;;;;;;;7.66;100.00;101071.53;4933707;29;20062;-72
2022/12/20 00:49:34;;;;;;;22.38;9.65;;;;;;;7.80;100.00;101085.50;4937934;29;20062;-75
2022/12/20 00:52:00;;;;;;;22.00;10.32;;;;;;;7.73;100.00;101081.63;4936567;29;20067;-74
2022/12/20 00:54:25;;;;;;;18.77;10.13;;;;;;;7.66;100.00;101083.16;4899720;29;20119;-73
2022/12/20 00:56:50;;;;;;;18.73;10.98;;;;;;;7.67;100.00;101079.47;4920935;29;20024;-73
2022/12/20 00:59:16;;;;;;;18.83;10.18;;;;;;;7.60;100.00;101072.91;4918380;29;20487;-73
2022/12/20 01:01:41;;;;;;;21.67;10.85;;;;;;;7.59;100.00;101072.06;4935373;29;20036;-73
2022/12/20 01:04:07;;;;;;;19.90;10.20;;;;;;;7.51;100.00;101073.72;4935150;29;20082;-73
2022/12/20 01:06:33;;;;;;;20.38;10.93;;;;;;;7.53;100.00;101069.06;4918216;29;20471;-73
2022/12/20 01:08:58;;;;;;;21.30;11.10;;;;;;;7.61;100.00;101069.22;4918578;29;20034;-73
2022/12/20 01:11:26;;;;;;;19.90;10.80;;;;;;;7.60;100.00;101056.75;4918323;29;20035;-73
2022/12/20 01:13:54;;;;;;;22.35;9.93;;;;;;;7.62;100.00;101065.53;4939384;29;20043;-73
2022/12/20 01:16:33;;;;;;;22.38;11.25;;;;;;;7.64;100.00;101062.72;4936698;29;20051;-73
2022/12/20 01:18:59;;;;;;;21.15;10.63;;;;;;;7.62;100.00;101070.94;4935381;29;20080;-73
2022/12/20 01:21:26;;;;;;;21.95;10.52;;;;;;;7.57;100.00;101075.91;4917747;29;20031;-73
2022/12/20 01:23:51;;;;;;;21.85;11.60;;;;;;;7.41;100.00;101068.28;4930660;29;20124;-73
2022/12/20 01:26:19;;;;;;;28.17;11.23;;;;;;;7.41;100.00;101079.03;4915837;29;20107;-73
2022/12/20 01:28:46;;;;;;;18.50;10.48;;;;;;;7.68;100.00;101077.63;4917093;29;20099;-74
2022/12/20 01:31:16;;;;;;;25.30;10.80;;;;;;;7.62;100.00;101070.94;4917930;29;20035;-72
2022/12/20 01:33:43;;;;;;;21.55;11.30;;;;;;;7.80;100.00;101074.72;4934753;29;20039;-73
2022/12/20 01:36:26;;;;;;;23.20;11.07;;;;;;;7.63;100.00;101072.66;4917599;29;20410;-73
2022/12/20 01:38:56;;;;;;;22.58;10.93;;;;;;;7.56;100.00;101074.16;4934976;29;20042;-73
2022/12/20 01:41:22;;;;;;;19.80;10.35;;;;;;;7.72;100.00;101071.00;4934661;29;20035;-73
2022/12/20 01:43:59;;;;;;;18.02;10.55;;;;;;;7.70;100.00;101073.84;4935133;29;20042;-73
2022/12/20 01:46:30;;;;;;;20.73;10.40;;;;;;;7.68;100.00;101070.41;4917584;29;20106;-73
2022/12/20 01:49:05;;;;;;;19.25;10.68;;;;;;;7.65;100.00;101070.69;4918060;29;20487;-73
2022/12/20 01:51:33;;;;;;;23.30;11.13;;;;;;;7.65;100.00;101065.28;4917104;29;20114;-73
2022/12/20 01:54:14;;;;;;;15.93;9.68;;;;;;;7.73;100.00;101056.53;4934884;29;20027;-73
2022/12/20 01:56:45;;;;;;;18.57;9.93;;;;;;;7.84;100.00;101051.91;4917340;29;20055;-73
2022/12/20 01:59:12;;;;;;;18.08;9.85;;;;;;;7.97;100.00;101048.09;4918186;29;20031;-73
2022/12/20 02:01:37;;;;;;;17.38;10.27;;;;;;;7.97;100.00;101053.50;4934860;29;20094;-73
2022/12/20 02:04:02;;;;;;;21.73;10.82;;;;;;;8.00;100.00;101042.44;4933318;29;20020;-73
2022/12/20 02:06:28;;;;;;;21.10;9.70;;;;;;;8.00;100.00;101058.59;4934059;29;20028;-72
2022/12/20 02:08:59;;;;;;;21.90;9.93;;;;;;;7.89;100.00;101041.56;4917344;29;20027;-72
2022/12/20 02:11:30;;;;;;;15.48;9.45;;;;;;;8.12;100.00;101046.72;4934303;29;20047;-72
2022/12/20 02:14:22;;;;;;;26.02;10.07;;;;;;;8.12;100.00;101041.34;4934818;29;20032;-72
2022/12/20 02:17:13;;;;;;;21.13;9.32;;;;;;;8.22;100.00;101044.91;4922311;29;20471;-73
2022/12/20 02:19:57;;;;;;;22.15;8.60;;;;;;;8.31;100.00;101052.16;4930031;29;20036;-72
2022/12/20 02:22:34;;;;;;;20.83;9.23;;;;;;;8.41;100.00;101047.69;4914107;29;20036;-72
2022/12/20 02:25:31;;;;;;;15.30;8.80;;;;;;;8.49;100.00;101038.03;4915057;29;20032;-72
2022/12/20 02:28:14;;;;;;;19.83;8.68;;;;;;;8.64;100.00;101039.31;4897951;29;20029;-73
2022/12/20 02:30:44;;;;;;;16.65;8.45;;;;;;;8.68;100.00;101038.03;4898232;29;20067;-72
2022/12/20 02:33:12;;;;;;;16.63;7.63;;;;;;;8.92;100.00;101034.88;4898063;29;20039;-73
2022/12/20 02:35:38;;;;;;;13.95;7.88;;;;;;;8.98;100.00;101029.75;4897674;29;20020;-71
2022/12/20 02:38:34;;;;;;;13.30;8.23;;;;;;;9.06;100.00;101025.47;4898367;29;20028;-72
2022/12/20 02:41:24;;;;;;;18.45;8.90;;;;;;;8.95;100.00;101034.63;4897693;29;20031;-72
2022/12/20 02:46:41;;;;;;;18.00;8.60;;;;;;;9.05;100.00;101015.69;4922975;29;20020;-72
2022/12/20 02:49:15;;;;;;;17.55;9.15;;;;;;;9.12;100.00;101008.69;4898094;29;20107;-72
2022/12/20 02:51:44;;;;;;;13.63;8.23;;;;;;;9.25;100.00;101014.63;4914621;29;20036;-72
2022/12/20 02:54:10;;;;;;;15.20;7.82;;;;;;;9.19;100.00;101020.63;4914958;29;20038;-73
2022/12/20 02:56:49;;;;;;;18.08;8.55;;;;;;;9.16;100.00;101010.13;4914372;29;20103;-73
2022/12/20 02:59:23;;;;;;;19.42;8.23;;;;;;;9.09;100.00;101012.56;4929516;29;20047;-73
2022/12/20 03:01:53;;;;;;;16.95;7.88;;;;;;;9.18;100.00;101008.13;4914850;29;20063;-73
2022/12/20 03:04:24;;;;;;;17.70;7.65;;;;;;;9.28;100.00;100992.75;4898014;29;20480;-72
2022/12/20 03:07:01;;;;;;;16.63;7.63;;;;;;;9.28;100.00;101003.56;4897745;29;20096;-72
2022/12/20 03:09:30;;;;;;;14.63;7.90;;;;;;;9.46;100.00;101001.78;4897746;29;20032;-73
2022/12/20 03:11:55;;;;;;;14.10;7.57;;;;;;;9.37;100.00;101008.06;4897478;29;20067;-73
2022/12/20 03:14:21;;;;;;;11.80;6.47;;;;;;;9.46;100.00;100996.38;4906662;29;20060;-72
2022/12/20 03:16:55;;;;;;;14.95;7.03;;;;;;;9.51;100.00;101002.19;4913339;29;20059;-73
2022/12/20 03:19:21;;;;;;;17.58;6.90;;;;;;;9.49;100.00;101001.47;4913795;29;20059;-73
2022/12/20 03:21:46;;;;;;;14.88;7.45;;;;;;;9.41;100.00;101004.06;4912957;29;20075;-72
2022/12/20 03:24:12;;;;;;;13.35;6.93;;;;;;;9.44;100.00;101003.78;4912910;29;20411;-73
2022/12/20 03:26:39;;;;;;;13.82;6.85;;;;;;;9.64;100.00;101025.31;4912842;29;20112;-73
2022/12/20 03:29:05;;;;;;;15.05;6.75;;;;;;;9.36;100.00;101017.16;4913199;29;20171;-72
2022/12/20 03:31:30;;;;;;;14.15;7.32;;;;;;;9.37;100.00;101008.06;4913217;29;20095;-73
2022/12/20 03:33:55;;;;;;;15.73;6.63;;;;;;;9.44;100.00;101009.19;4913460;29;20052;-73
2022/12/20 03:36:22;;;;;;;15.00;6.93;;;;;;;9.32;100.00;100999.53;4912981;29;20024;-72
2022/12/20 03:38:49;;;;;;;13.43;7.15;;;;;;;9.46;100.00;100996.38;4913577;29;20043;-73
2022/12/20 03:41:15;;;;;;;21.70;7.82;;;;;;;9.47;100.00;100998.09;4912497;29;20036;-72
2022/12/20 03:43:40;;;;;;;13.10;7.00;;;;;;;9.54;100.00;101008.31;4913334;29;20032;-73
2022/12/20 03:46:05;;;;;;;13.32;6.57;;;;;;;9.40;100.00;101013.19;4920221;29;20012;-74
2022/12/20 03:48:31;;;;;;;12.90;7.15;;;;;;;9.50;100.00;101019.41;4921287;29;20111;-73
2022/12/20 03:50:56;;;;;;;14.02;7.22;;;;;;;9.33;100.00;100995.00;4929090;29;20043;-73
2022/12/20 03:53:21;;;;;;;14.85;7.00;;;;;;;9.33;100.00;101001.28;4916375;29;20107;-73
2022/12/20 03:55:46;;;;;;;16.70;6.53;;;;;;;9.43;100.00;101006.63;4932654;29;20468;-73
2022/12/20 03:58:12;;;;;;;14.50;6.72;;;;;;;9.41;100.00;100995.97;4917081;29;20046;-74
2022/12/20 04:00:37;;;;;;;21.65;7.00;;;;;;;9.39;100.00;100989.88;4931976;29;20024;-73
2022/12/20 04:03:02;;;;;;;11.77;6.35;;;;;;;9.43;100.00;100991.25;4918258;29;20055;-73
2022/12/20 04:05:28;;;;;;;21.25;7.03;;;;;;;9.41;100.00;100990.56;4916754;29;20028;-74
2022/12/20 04:07:53;;;;;;;12.55;6.45;;;;;;;9.40;100.00;100996.97;4916595;29;20075;-73
2022/12/20 04:10:18;;;;;;;13.52;6.72;;;;;;;9.50;100.00;101002.31;4916891;29;20044;-74
2022/12/20 04:12:44;;;;;;;14.68;6.63;;;;;;;9.42;100.00;101003.06;4916306;29;20027;-73
2022/12/20 04:15:09;;;;;;;14.43;7.03;;;;;;;9.46;100.00;100995.53;4937905;28;20101;-74
2022/12/20 04:17:35;;;;;;;19.63;7.45;;;;;;;9.39;100.00;100995.28;4937797;29;20100;-73
2022/12/20 04:20:17;;;;;;;15.55;7.65;;;;;;;9.42;100.00;100994.97;4938066;29;20030;-73
2022/12/20 04:22:47;;;;;;;17.63;7.13;;;;;;;9.28;100.00;100998.16;4953303;28;20027;-74
2022/12/20 04:25:13;;;;;;;18.55;7.00;;;;;;;9.27;100.00;100991.06;4919172;29;20028;-74
2022/12/20 04:27:38;;;;;;;14.15;7.15;;;;;;;9.27;100.00;100996.44;4919835;29;20112;-73
2022/12/20 04:30:04;;;;;;;13.38;7.03;;;;;;;9.09;100.00;100998.19;4919328;29;20118;-72
2022/12/20 04:32:29;;;;;;;19.88;7.95;;;;;;;9.12;100.00;100987.09;4935407;29;20031;-72
2022/12/20 04:34:54;;;;;;;12.25;6.43;;;;;;;9.14;100.00;100985.13;4918843;29;20028;-74
2022/12/20 04:37:20;;;;;;;17.13;7.75;;;;;;;9.08;100.00;100988.41;4918655;29;20042;-72
2022/12/20 04:39:45;;;;;;;14.45;7.18;;;;;;;9.11;100.00;100988.09;4935995;29;20114;-73
2022/12/20 04:42:10;;;;;;;19.40;7.90;;;;;;;9.11;100.00;100980.00;4935891;29;20061;-72
2022/12/20 04:44:36;;;;;;;15.57;7.82;;;;;;;9.10;100.00;100986.41;4935574;29;20111;-72
2022/12/20 04:47:02;;;;;;;16.83;8.02;;;;;;;9.03;100.00;100977.16;4934594;29;20019;-72
2022/12/20 04:49:27;;;;;;;16.95;8.45;;;;;;;9.12;100.00;100976.28;4918394;29;20023;-72
2022/12/20 04:51:52;;;;;;;17.38;8.10;;;;;;;8.97;100.00;100974.03;4918657;29;20019;-73
2022/12/20 04:54:18;;;;;;;18.42;8.18;;;;;;;9.05;100.00;100980.56;4934754;29;20023;-72
2022/12/20 04:56:43;;;;;;;14.40;8.55;;;;;;;9.06;100.00;100979.56;4933811;29;20039;-73
2022/12/20 04:59:10;;;;;;;13.57;8.90;;;;;;;9.02;100.00;100987.13;4918936;29;20027;-72
2022/12/20 05:01:35;;;;;;;20.38;8.73;;;;;;;8.87;100.00;100983.19;4918654;29;20175;-74
2022/12/20 05:04:01;;;;;;;18.92;8.77;;;;;;;8.86;100.00;100978.75;4918843;29;20075;-71
2022/12/20 05:06:26;;;;;;;19.73;8.60;;;;;;;8.83;100.00;100988.00;4918301;29;20102;-75
2022/12/20 05:08:53;;;;;;;19.85;8.98;;;;;;;8.96;100.00;100991.25;4935812;29;20059;-73
2022/12/20 05:11:19;;;;;;;21.20;9.70;;;;;;;8.71;100.00;100991.84;4918489;29;20027;-72
2022/12/20 05:13:44;;;;;;;17.65;8.45;;;;;;;8.82;100.00;100980.91;4918371;29;20047;-72
2022/12/20 05:16:10;;;;;;;17.02;10.63;;;;;;;8.88;100.00;100980.34;4933945;29;20075;-72
2022/12/20 05:18:35;;;;;;;16.73;9.48;;;;;;;8.79;100.00;100980.31;4918686;29;20035;-74
2022/12/20 05:26:33;;;;;;;21.92;10.43;;;;;;;8.65;100.00;100973.53;4935253;29;20083;-73
2022/12/20 05:28:58;;;;;;;16.27;9.30;;;;;;;8.83;100.00;100976.34;4935155;29;20410;-72
2022/12/20 05:31:24;;;;;;;16.92;9.20;;;;;;;8.79;100.00;100975.78;4917864;29;20047;-72
2022/12/20 05:33:49;;;;;;;19.27;9.80;;;;;;;8.73;100.00;100970.97;4933397;29;20075;-72
2022/12/20 05:36:15;;;;;;;24.25;10.10;;;;;;;8.73;100.00;100976.34;4917705;29;20024;-71
2022/12/20 05:38:40;;;;;;;22.20;9.25;;;;;;;8.58;100.00;100962.44;4934895;29;20031;-73
2022/12/20 05:41:06;;;;;;;15.98;9.65;;;;;;;8.57;100.00;100970.69;4917834;29;20090;-72
2022/12/20 05:43:31;;;;;;;25.33;10.85;;;;;;;8.41;100.00;100968.56;4934810;29;20122;-71
2022/12/20 05:45:56;;;;;;;21.05;11.57;;;;;;;8.38;100.00;100961.59;4917635;29;20038;-72
2022/12/20 05:48:22;;;;;;;22.08;12.00;;;;;;;8.39;100.00;100957.91;4918371;29;20035;-72
2022/12/20 05:50:48;;;;;;;23.02;11.50;;;;;;;8.37;100.00;100954.50;4918497;29;20027;-72
2022/12/20 05:53:15;;;;;;;23.00;11.93;;;;;;;8.39;100.00;100971.41;4933387;29;20030;-73
2022/12/20 05:55:46;;;;;;;21.13;10.95;;;;;;;8.38;100.00;100968.84;4933562;29;20391;-70
2022/12/20 05:58:12;;;;;;;30.08;11.50;;;;;;;8.40;100.00;100962.31;4933612;29;20031;-71
2022/12/20 06:00:39;;;;;;;20.90;12.43;;;;;;;8.41;100.00;100955.94;4933245;29;20494;-70
2022/12/20 06:03:05;;;;;;;21.55;13.10;;;;;;;8.32;100.00;100956.75;4934007;29;20027;-70
2022/12/20 06:05:31;;;;;;;25.75;12.27;;;;;;;8.28;100.00;100949.94;4917511;29;20023;-70
2022/12/20 06:07:56;;;;;;;20.50;11.32;;;;;;;8.29;100.00;100967.84;4917591;29;20027;-71
2022/12/20 06:10:21;;;;;;;30.42;13.05;;;;;;;8.23;100.00;100968.41;4934278;29;20442;-70
2022/12/20 06:12:47;;;;;;;26.08;12.23;;;;;;;8.26;100.00;100968.09;4917819;29;20034;-72
2022/12/20 06:15:14;;;;;;;31.08;13.07;;;;;;;8.15;100.00;100966.41;4932733;29;20070;-71
2022/12/20 06:17:39;;;;;;;36.47;13.00;;;;;;;8.19;100.00;100974.19;4932829;29;20059;-71
2022/12/20 06:20:05;;;;;;;27.80;13.00;;;;;;;8.18;100.00;100986.84;4917417;29;20059;-71
2022/12/20 06:22:31;;;;;;;25.25;12.80;;;;;;;8.42;100.00;100990.03;4917179;29;20039;-71
2022/12/20 06:24:56;;;;;;;28.55;12.25;;;;;;;8.45;100.00;100988.03;4933296;29;20028;-72
2022/12/20 06:27:22;;;;;;;28.42;12.65;;;;;;;8.28;100.00;100981.44;4917013;29;20031;-72
2022/12/20 06:29:50;;;;;;;26.67;13.20;;;;;;;8.27;100.00;100980.59;4916306;29;20126;-72
2022/12/20 06:32:16;;;;;;;26.48;12.85;;;;;;;8.27;100.00;100985.13;4933882;29;20024;-72
2022/12/20 06:34:42;;;;;;;29.05;13.57;;;;;;;8.41;100.00;100972.13;4917152;29;20047;-73
2022/12/20 06:37:07;;;;;;;32.72;12.50;;;;;;;8.49;100.00;100984.06;4933768;29;20106;-72
2022/12/20 06:39:33;;;;;;;24.10;11.68;;;;;;;8.60;100.00;100975.78;4916794;29;20035;-72
2022/12/20 06:41:58;;;;;;;25.98;12.07;;;;;;;8.64;100.00;100977.22;4916679;29;20028;-73
2022/12/20 06:44:23;;;;;;;31.50;12.45;;;;;;;8.82;100.00;100964.72;4933970;29;20448;-73
2022/12/20 06:46:49;;;;;;;25.48;12.95;;;;;;;8.72;100.00;100958.47;4916962;29;20099;-73
2022/12/20 06:49:14;;;;;;;27.92;12.65;;;;;;;8.68;100.00;100951.66;4932436;29;20028;-72
2022/12/20 06:51:39;;;;;;;28.65;12.07;;;;;;;8.67;100.00;100944.53;4916519;29;20046;-70
2022/12/20 06:54:05;;;;;;;24.45;13.32;;;;;;;8.74;100.00;100951.09;4933767;29;20110;-71
2022/12/20 06:56:30;;;;;;;32.33;14.13;;;;;;;8.63;100.00;100953.94;4916297;29;20039;-72
2022/12/20 06:58:55;;;;;;;34.33;14.65;;;;;;;8.60;100.00;100967.69;4917236;29;20030;-71
2022/12/20 07:01:21;;;;;;;23.02;14.52;;;;;;;8.66;100.00;100965.28;4933727;29;20435;-71
2022/12/20 07:03:46;;;;;;;33.13;13.93;;;;;;;8.66;100.00;100978.78;4916321;29;20023;-71
2022/12/20 07:06:11;;;;;;;28.20;13.65;;;;;;;8.57;100.00;100970.69;4916117;29;20084;-71
2022/12/20 07:08:37;;;;;;;26.15;14.05;;;;;;;8.49;100.00;100962.47;4916381;29;20023;-72
2022/12/20 07:11:04;;;;;;;25.92;14.85;;;;;;;8.46;100.00;100978.94;4932567;29;20046;-71
2022/12/20 07:13:30;;;;;;;28.95;14.43;;;;;;;8.45;100.00;100971.84;4933836;29;20146;-71
2022/12/20 07:15:59;;;;;;;34.17;14.88;;;;;;;8.50;100.00;100969.56;4916227;29;20482;-72
2022/12/20 07:18:25;;;;;;;28.13;15.65;;;;;;;8.58;100.00;100972.41;4916368;29;20030;-71
2022/12/20 07:20:50;;;;;;;29.02;15.98;;;;;;;8.45;100.00;100971.84;4916517;29;20032;-74
2022/12/20 07:23:16;;;;;;;30.85;16.45;;;;;;;8.54;100.00;100992.56;4916333;29;20027;-72
2022/12/20 07:25:41;;;;;;;30.13;15.10;;;;;;;8.50;100.00;100985.75;4916480;29;20035;-72
2022/12/20 07:28:06;;;;;;;30.45;17.42;;;;;;;8.46;100.00;100987.03;4919930;29;20032;-72
2022/12/20 07:30:31;;;;;;;26.33;15.90;;;;;;;8.58;100.00;100977.78;4920119;29;20087;-72
2022/12/20 07:32:57;;;;;;;31.08;15.65;;;;;;;8.54;100.00;100973.66;4920589;29;20044;-72
2022/12/20 07:35:23;;;;;;;28.77;15.35;;;;;;;8.56;100.00;100969.00;4920484;29;20118;-72
2022/12/20 07:37:48;;;;;;;30.83;15.05;;;;;;;8.52;100.00;100962.19;4920087;29;20083;-72
2022/12/20 07:40:15;;;;;;;34.42;15.35;;;;;;;8.53;100.00;100958.47;4935272;29;20134;-72
2022/12/20 07:42:40;;;;;;;39.45;16.65;;;;;;;8.50;100.00;100954.22;4919857;29;20051;-72
2022/12/20 07:45:06;;;;;;;27.05;15.85;;;;;;;8.56;100.00;100955.50;4919658;29;20070;-72
2022/12/20 07:47:34;;;;;;;28.50;15.43;;;;;;;8.57;100.00;100943.72;4919635;29;20027;-73
2022/12/20 07:49:59;;;;;;;35.67;16.25;;;;;;;8.51;100.00;100939.75;4936874;29;20031;-73
2022/12/20 07:52:27;;;;;;;28.73;16.10;;;;;;;8.62;100.00;100952.25;4936538;29;20087;-73
2022/12/20 07:54:57;;;;;;;33.90;17.25;;;;;;;8.48;100.00;100966.16;4936599;29;20036;-73
2022/12/20 07:57:28;;;;;;;32.20;18.50;;;;;;;8.63;100.00;100956.63;4919310;29;20073;-72
2022/12/20 07:59:58;;;;;;;33.65;16.92;;;;;;;8.52;100.00;100970.28;4920196;29;20035;-72
2022/12/20 08:02:29;;;;;;;35.22;19.13;;;;;;;8.46;100.00;100957.34;4936381;29;20071;-72
2022/12/20 08:04:55;;;;;;;36.58;18.30;;;;;;;8.51;100.00;100952.38;4936382;29;20559;-72
2022/12/20 08:07:21;;;;;;;37.10;18.42;;;;;;;8.51;100.00;100949.69;4936676;29;20043;-73
2022/12/20 08:09:47;;;;;;;32.45;17.63;;;;;;;8.49;100.00;100932.78;4919291;29;20129;-72
2022/12/20 08:12:15;;;;;;;26.10;16.38;;;;;;;8.52;100.00;100940.59;4935561;29;20070;-71
2022/12/20 08:14:41;;;;;;;34.95;16.20;;;;;;;8.51;100.00;100945.13;4904079;29;20115;-72
2022/12/20 08:17:07;;;;;;;58.92;17.45;;;;;;;8.53;100.00;100947.69;4917116;29;20039;-72
2022/12/20 08:19:32;;;;;;;32.97;16.27;;;;;;;8.60;100.00;100943.41;4917685;29;20032;-72
2022/12/20 08:21:57;;;;;;;29.38;14.98;;;;;;;8.48;100.00;100949.97;4916073;29;20024;-72
2022/12/20 08:24:23;;;;;;;31.05;15.50;;;;;;;8.60;100.00;100954.22;4900265;29;20028;-73
2022/12/20 08:26:49;;;;;;;68.63;19.42;;;;;;;8.52;100.00;100951.38;4899817;29;20107;-72
2022/12/20 08:29:14;;;;;;;30.65;16.73;;;;;;;8.50;100.00;100929.09;4917079;29;20506;-73
2022/12/20 08:31:43;;;;;;;28.27;15.88;;;;;;;8.58;100.00;100931.91;4915563;29;20071;-72
2022/12/20 08:34:09;;;;;;;28.90;15.40;;;;;;;8.65;100.00;100919.53;4899788;29;20032;-72
2022/12/20 08:36:35;;;;;;;31.17;16.27;;;;;;;8.54;100.00;100927.78;4898475;29;20028;-72
2022/12/20 08:39:04;;;;;;;28.65;15.05;;;;;;;8.61;100.00;100924.41;4914410;29;20104;-70
2022/12/20 08:41:32;;;;;;;35.30;15.27;;;;;;;8.53;100.00;100920.69;4915108;29;20035;-71
2022/12/20 08:43:58;;;;;;;27.02;14.55;;;;;;;8.63;100.00;100918.84;4900479;29;20111;-70
2022/12/20 08:46:23;;;;;;;25.90;14.77;;;;;;;8.66;100.00;100921.25;4897999;29;20107;-71
2022/12/20 08:48:49;;;;;;;30.92;14.77;;;;;;;8.68;100.00;100919.28;4900965;29;20031;-72
2022/12/20 08:51:14;;;;;;;30.70;14.85;;;;;;;8.72;100.00;100915.28;4901751;29;20032;-71
2022/12/20 08:53:39;;;;;;;31.25;15.75;;;;;;;8.73;100.00;100922.38;4902389;29;20035;-70
2022/12/20 08:56:06;;;;;;;24.90;13.73;;;;;;;8.75;100.00;100915.00;4900488;29;20036;-71
2022/12/20 08:58:32;;;;;;;25.15;13.52;;;;;;;8.79;100.00;100927.19;4914342;29;20024;-71
2022/12/20 09:01:01;;;;;;;27.65;12.57;;;;;;;8.72;100.00;100915.28;4901584;29;20079;-72
2022/12/20 09:03:30;;;;;;;26.17;14.07;;;;;;;8.69;100.00;100905.63;4900014;29;20024;-70
2022/12/20 09:05:55;;;;;;;27.58;14.57;;;;;;;8.63;100.00;100899.97;4916961;29;20132;-70
2022/12/20 09:08:21;;;;;;;29.27;14.60;;;;;;;8.57;100.00;100904.09;4916127;29;20094;-71
2022/12/20 09:10:49;;;;;;;30.02;14.65;;;;;;;8.69;100.00;100908.31;4899133;29;20505;-71
2022/12/20 09:13:15;;;;;;;26.00;14.15;;;;;;;8.76;100.00;100895.09;4924063;29;20062;-71
2022/12/20 09:15:41;;;;;;;24.25;14.88;;;;;;;8.72;100.00;100903.63;4949502;28;20059;-71
2022/12/20 09:18:07;;;;;;;29.13;13.70;;;;;;;8.81;100.00;100902.78;4948917;29;20031;-71
2022/12/20 09:20:40;;;;;;;32.50;15.15;;;;;;;8.85;100.00;100899.59;4934793;29;20471;-72
2022/12/20 09:23:06;;;;;;;24.93;12.00;;;;;;;8.94;100.00;100909.53;4917704;29;20090;-71
2022/12/20 09:25:32;;;;;;;22.35;12.95;;;;;;;9.07;100.00;100911.91;4917334;29;20028;-71
2022/12/20 09:27:57;;;;;;;24.75;14.05;;;;;;;8.95;100.00;100927.44;4917494;29;20031;-71
2022/12/20 09:30:23;;;;;;;23.65;12.88;;;;;;;9.08;100.00;100921.72;4916974;29;20027;-71
2022/12/20 09:32:48;;;;;;;24.42;12.98;;;;;;;8.98;100.00;100916.34;4925012;29;20035;-71
2022/12/20 09:35:14;;;;;;;21.67;13.27;;;;;;;9.06;100.00;100917.44;4925014;29;20019;-71
2022/12/20 09:37:40;;;;;;;31.17;14.40;;;;;;;9.02;100.00;100916.06;4934273;29;20082;-71
2022/12/20 09:40:09;;;;;;;24.52;13.05;;;;;;;9.08;100.00;100907.38;4933242;29;20079;-72
2022/12/20 09:42:35;;;;;;;22.65;13.32;;;;;;;9.09;100.00;100906.38;4917033;29;20024;-72
2022/12/20 09:45:08;;;;;;;25.50;12.88;;;;;;;9.17;100.00;100909.16;4933837;29;20064;-72
2022/12/20 09:47:36;;;;;;;36.20;15.20;;;;;;;9.06;100.00;100912.03;4917113;29;20062;-72
2022/12/20 09:50:03;;;;;;;22.38;12.40;;;;;;;9.21;100.00;100916.00;4916454;29;20032;-72
2022/12/20 09:52:34;;;;;;;22.73;11.95;;;;;;;9.20;100.00;100903.50;4917177;29;20090;-72
2022/12/20 09:55:24;;;;;;;22.98;12.60;;;;;;;9.21;100.00;100916.00;4933917;29;20491;-72
2022/12/20 09:58:05;;;;;;;22.38;12.13;;;;;;;9.22;100.00;100912.28;4945874;29;20043;-71
2022/12/20 10:00:45;;;;;;;22.35;11.65;;;;;;;9.26;100.00;100897.50;4916392;29;20031;-71
2022/12/20 10:03:18;;;;;;;18.88;11.38;;;;;;;9.43;100.00;100899.38;4934198;29;20027;-72
2022/12/20 10:05:52;;;;;;;18.60;10.38;;;;;;;9.49;100.00;100904.19;4933265;29;20062;-71
2022/12/20 10:08:43;;;;;;;19.05;10.68;;;;;;;9.64;100.00;100901.81;4926849;29;20054;-71
2022/12/20 10:11:49;;;;;;;26.00;11.50;;;;;;;9.66;100.00;100898.97;4933603;29;20038;-72
2022/12/20 10:14:52;;;;;;;21.25;13.00;;;;;;;9.45;100.00;100886.59;4932316;29;20068;-71
2022/12/20 10:17:54;;;;;;;24.88;12.18;;;;;;;9.55;100.00;100885.66;4912100;29;20024;-71
2022/12/20 10:20:31;;;;;;;22.75;12.15;;;;;;;9.47;100.00;100879.16;4915461;29;20058;-72
2022/12/20 10:23:12;;;;;;;21.27;12.25;;;;;;;9.49;100.00;100871.75;4914005;29;20115;-71
2022/12/20 10:25:40;;;;;;;21.20;11.40;;;;;;;9.64;100.00;100869.38;4913951;29;20028;-71
2022/12/20 10:28:14;;;;;;;26.50;11.63;;;;;;;9.92;100.00;100870.19;4914672;29;20510;-71
2022/12/20 10:30:40;;;;;;;21.35;12.05;;;;;;;9.64;100.00;100873.94;4912082;29;20031;-72
2022/12/20 10:33:16;;;;;;;25.25;11.65;;;;;;;9.70;100.00;100865.22;4914327;29;20027;-72
2022/12/20 10:35:42;;;;;;;26.35;13.02;;;;;;;9.56;100.00;100850.38;4911977;29;20132;-71
2022/12/20 10:38:14;;;;;;;21.50;11.68;;;;;;;9.55;100.00;100847.81;4915250;29;20115;-72
2022/12/20 10:40:39;;;;;;;;;;;;;;;9.70;100.00;100841.72;4914596;29;20044;-72
2022/12/20 10:43:13;;;;;;;25.95;11.77;;;;;;;9.76;100.00;100840.28;4915159;29;19911;-71
2022/12/20 10:45:41;;;;;;;20.10;11.02;;;;;;;9.71;100.00;100843.44;4946809;28;20024;-72
2022/12/20 10:48:34;;;;;;;23.90;12.18;;;;;;;9.73;100.00;100840.59;4912587;29;20147;-72
2022/12/20 10:51:12;;;;;;;21.95;11.07;;;;;;;9.79;100.00;100839.97;4929111;29;20075;-72
2022/12/20 10:54:01;;;;;;;25.52;11.15;;;;;;;9.78;100.00;100843.69;4928417;29;20040;-71
2022/12/20 10:56:33;;;;;;;17.80;10.95;;;;;;;9.77;100.00;100847.38;4944575;28;20036;-72
2022/12/20 10:59:00;;;;;;;23.77;11.70;;;;;;;9.66;100.00;100828.69;4913494;29;20376;-71
2022/12/20 11:01:30;;;;;;;18.70;11.07;;;;;;;9.75;100.00;100833.16;4915198;29;20008;-71
2022/12/20 11:03:57;;;;;;;29.33;12.07;;;;;;;9.63;100.00;100826.28;4946550;28;20024;-72
2022/12/20 11:06:28;;;;;;;16.88;11.18;;;;;;;9.66;100.00;100829.53;4916155;29;20083;-72
2022/12/20 11:09:27;;;;;;;21.98;11.25;;;;;;;9.67;100.00;100824.97;4914655;29;20043;-72
2022/12/20 11:12:15;;;;;;;21.80;11.45;;;;;;;9.67;100.00;100819.56;4914787;29;20032;-71
2022/12/20 11:14:43;;;;;;;20.55;11.50;;;;;;;9.74;100.00;100821.50;4929796;29;20032;-72
2022/12/20 11:17:36;;;;;;;20.77;10.02;;;;;;;9.76;100.00;100813.22;4931969;29;20043;-72
2022/12/20 11:20:01;;;;;;;19.75;10.07;;;;;;;9.80;100.00;100809.22;4913162;29;20134;-72
2022/12/20 11:22:48;;;;;;;19.77;11.75;;;;;;;9.77;100.00;100804.13;4933992;29;20163;-71
2022/12/20 11:25:30;;;;;;;20.25;10.85;;;;;;;9.74;100.00;100794.47;4930291;29;20032;-72
2022/12/20 11:28:08;;;;;;;21.88;10.02;;;;;;;9.96;100.00;100798.53;4916031;29;20066;-71